Time;durP1;ratioP1;P1;durP2;ratioP2;P2;SDS_P1;SDS_P2;PMS_P1;PMS_P2;Temp;Humidity;BMP_temperature;BMP_pressure;BME280_temperature;BME280_humidity;BME280_pressure;Samples;Min_cycle;Max_cycle;Signal;HPM_P1;HPM_P2
2021/11/22 00:01:40;;;;;;;1.50;1.20;;;8.50;75.40;;;;;;5052951;28;20519;-79
2021/11/22 00:04:09;;;;;;;1.67;1.38;;;8.40;75.40;;;;;;5054338;28;20029;-81
2021/11/22 00:06:35;;;;;;;1.20;1.08;;;8.40;75.40;;;;;;5054106;28;20032;-79
2021/11/22 00:09:01;;;;;;;1.45;1.20;;;8.40;75.40;;;;;;5054028;28;20120;-79
2021/11/22 00:11:26;;;;;;;1.50;1.20;;;8.40;75.40;;;;;;5053354;28;20108;-80
2021/11/22 00:13:52;;;;;;;1.40;1.30;;;8.40;75.50;;;;;;5052829;28;20045;-79
2021/11/22 00:16:18;;;;;;;2.55;1.25;;;8.40;75.50;;;;;;5036528;28;20107;-79
2021/11/22 00:18:44;;;;;;;2.28;1.40;;;8.40;75.50;;;;;;5053865;28;20139;-80
2021/11/22 00:21:10;;;;;;;1.20;1.10;;;8.40;75.60;;;;;;5054448;28;20100;-80
2021/11/22 00:23:36;;;;;;;1.52;1.08;;;8.40;75.60;;;;;;5052977;28;20028;-80
2021/11/22 00:26:02;;;;;;;1.30;1.20;;;8.40;75.50;;;;;;5069668;28;20107;-81
2021/11/22 00:28:28;;;;;;;1.27;1.17;;;8.40;75.60;;;;;;5052902;28;20025;-80
2021/11/22 00:30:53;;;;;;;1.73;1.20;;;8.40;75.60;;;;;;5036974;28;20033;-80
2021/11/22 00:33:22;;;;;;;1.75;1.17;;;8.40;75.60;;;;;;5053286;28;20037;-82
2021/11/22 00:36:07;;;;;;;1.75;1.30;;;8.30;75.50;;;;;;5052997;28;20175;-79
2021/11/22 00:38:34;;;;;;;1.52;1.00;;;8.40;75.60;;;;;;5053629;28;20554;-79
2021/11/22 00:41:00;;;;;;;1.67;1.05;;;8.30;75.50;;;;;;5052574;28;20033;-80
2021/11/22 00:43:26;;;;;;;1.13;1.00;;;8.30;75.60;;;;;;5052610;28;20490;-80
2021/11/22 00:45:53;;;;;;;1.42;1.10;;;8.30;75.60;;;;;;5052455;28;20036;-80
2021/11/22 00:48:21;;;;;;;1.42;1.15;;;8.30;75.60;;;;;;5052461;28;20057;-80
2021/11/22 00:50:53;;;;;;;2.47;1.27;;;8.30;75.90;;;;;;5052802;28;20026;-80
2021/11/22 00:53:19;;;;;;;2.25;1.27;;;8.30;75.70;;;;;;5068740;28;20481;-80
2021/11/22 00:55:45;;;;;;;1.30;1.20;;;8.30;75.70;;;;;;5055444;28;20040;-85
2021/11/22 00:58:11;;;;;;;0.95;0.95;;;8.30;76.30;;;;;;5073561;28;20025;-80
2021/11/22 01:00:38;;;;;;;2.10;1.27;;;8.30;75.70;;;;;;5056598;28;20036;-80
2021/11/22 01:03:05;;;;;;;1.98;1.35;;;8.30;75.70;;;;;;5056268;28;20033;-81
2021/11/22 01:05:32;;;;;;;1.52;1.17;;;8.30;75.70;;;;;;5056467;28;20529;-78
2021/11/22 01:08:00;;;;;;;1.20;1.10;;;8.30;75.70;;;;;;5056429;28;20021;-79
2021/11/22 01:10:26;;;;;;;1.00;1.00;;;8.30;75.70;;;;;;5056270;28;20025;-81
2021/11/22 01:12:52;;;;;;;2.15;1.52;;;8.30;75.70;;;;;;5056476;28;20489;-81
2021/11/22 01:15:21;;;;;;;1.40;1.20;;;8.30;75.70;;;;;;5057202;28;20029;-80
2021/11/22 01:17:48;;;;;;;1.30;1.20;;;8.30;75.80;;;;;;5057902;28;20029;-81
2021/11/22 01:20:17;;;;;;;1.10;1.10;;;8.30;75.70;;;;;;5056527;28;20079;-80
2021/11/22 01:22:44;;;;;;;0.93;0.90;;;8.30;75.80;;;;;;5072398;28;20124;-79
2021/11/22 01:25:12;;;;;;;1.20;1.10;;;8.20;75.70;;;;;;5056201;28;20029;-80
2021/11/22 01:27:38;;;;;;;0.90;0.90;;;8.20;75.70;;;;;;5056305;28;20071;-80
2021/11/22 01:30:06;;;;;;;1.42;1.10;;;8.20;75.80;;;;;;5056085;28;20583;-80
2021/11/22 01:32:31;;;;;;;1.17;0.98;;;8.20;75.70;;;;;;5056158;28;20466;-80
2021/11/22 01:34:57;;;;;;;1.20;1.00;;;8.30;75.80;;;;;;5055467;28;20049;-80
2021/11/22 01:37:24;;;;;;;1.55;1.13;;;8.30;75.80;;;;;;5039468;28;20029;-80
2021/11/22 01:39:50;;;;;;;1.05;1.00;;;8.30;75.80;;;;;;5039817;28;20478;-81
2021/11/22 01:42:16;;;;;;;2.28;1.10;;;8.20;75.80;;;;;;5056151;28;20076;-80
2021/11/22 01:44:43;;;;;;;1.38;1.00;;;8.20;75.80;;;;;;5056040;28;20106;-80
2021/11/22 01:47:09;;;;;;;2.00;1.15;;;8.20;75.80;;;;;;5055700;28;20075;-80
2021/11/22 01:49:35;;;;;;;1.30;1.15;;;8.20;75.80;;;;;;5039306;28;20033;-80
2021/11/22 01:52:01;;;;;;;1.33;1.02;;;8.20;75.80;;;;;;5055563;28;20029;-82
2021/11/22 01:54:27;;;;;;;2.28;1.10;;;8.20;75.80;;;;;;5055935;28;20021;-79
2021/11/22 01:56:53;;;;;;;1.65;1.13;;;8.20;75.80;;;;;;5055410;28;20075;-83
2021/11/22 01:59:19;;;;;;;1.38;1.10;;;8.20;75.80;;;;;;5039320;28;20025;-81
2021/11/22 02:01:48;;;;;;;1.60;1.00;;;8.20;75.80;;;;;;5056116;28;20136;-81
2021/11/22 02:04:14;;;;;;;1.63;1.30;;;8.20;75.80;;;;;;5056477;28;20025;-80
2021/11/22 02:06:40;;;;;;;1.73;1.10;;;8.20;75.80;;;;;;5054382;28;20044;-80
2021/11/22 02:09:07;;;;;;;1.23;1.13;;;8.20;75.80;;;;;;5056709;28;20028;-80
2021/11/22 02:11:34;;;;;;;1.05;0.95;;;8.20;75.80;;;;;;5056229;28;20477;-80
2021/11/22 02:14:00;;;;;;;1.45;1.25;;;8.20;75.80;;;;;;5072410;28;20039;-80
2021/11/22 02:16:25;;;;;;;1.23;1.10;;;8.20;75.80;;;;;;5055661;28;20044;-80
2021/11/22 02:18:51;;;;;;;1.17;1.08;;;8.20;75.80;;;;;;5056216;28;20029;-81
2021/11/22 02:21:17;;;;;;;1.30;1.20;;;8.20;75.80;;;;;;5055922;28;20120;-80
2021/11/22 02:23:44;;;;;;;1.25;1.15;;;8.20;75.90;;;;;;5055461;28;20048;-79
2021/11/22 02:26:10;;;;;;;1.65;1.00;;;8.20;75.90;;;;;;5054992;28;20075;-80
2021/11/22 02:28:36;;;;;;;1.00;1.00;;;8.20;75.80;;;;;;5056142;28;20067;-80
2021/11/22 02:31:02;;;;;;;1.30;1.10;;;8.20;75.90;;;;;;5055208;28;20035;-80
2021/11/22 02:33:28;;;;;;;1.25;1.10;;;8.20;75.90;;;;;;5055360;28;20033;-80
2021/11/22 02:35:59;;;;;;;2.60;1.10;;;8.20;75.90;;;;;;5055131;28;20040;-80
2021/11/22 02:38:33;;;;;;;1.10;1.00;;;8.20;75.90;;;;;;5055461;28;20516;-80
2021/11/22 02:41:01;;;;;;;1.30;1.20;;;8.20;75.90;;;;;;5071761;28;20492;-81
2021/11/22 02:43:29;;;;;;;0.90;0.90;;;8.10;75.80;;;;;;5056769;28;20025;-80
2021/11/22 02:45:55;;;;;;;1.00;1.00;;;8.20;75.90;;;;;;5054920;28;20064;-80
2021/11/22 02:48:21;;;;;;;1.02;1.02;;;8.20;75.90;;;;;;5054662;28;20032;-80
2021/11/22 02:50:47;;;;;;;1.60;1.17;;;8.10;75.80;;;;;;5054552;28;20458;-81
2021/11/22 02:53:13;;;;;;;1.40;1.30;;;8.20;75.90;;;;;;5054664;28;20029;-80
2021/11/22 02:55:40;;;;;;;2.20;1.52;;;8.10;75.80;;;;;;5054638;28;20104;-80
2021/11/22 02:58:06;;;;;;;1.08;1.00;;;8.10;75.80;;;;;;5054513;28;20029;-80
2021/11/22 03:00:34;;;;;;;1.23;1.13;;;8.10;75.80;;;;;;5054295;28;20041;-80
2021/11/22 03:03:00;;;;;;;1.52;1.17;;;8.10;75.80;;;;;;5055480;28;20037;-80
2021/11/22 03:05:26;;;;;;;1.17;1.05;;;8.10;75.80;;;;;;5053846;28;20033;-79
2021/11/22 03:07:55;;;;;;;0.93;0.93;;;8.10;75.80;;;;;;5055088;28;20021;-81
2021/11/22 03:10:24;;;;;;;1.23;1.10;;;8.10;75.90;;;;;;5054590;28;20067;-80
2021/11/22 03:12:49;;;;;;;0.95;0.90;;;8.10;75.90;;;;;;5071115;28;20036;-80
2021/11/22 03:15:17;;;;;;;1.40;1.15;;;8.10;75.80;;;;;;5054232;28;20039;-80
2021/11/22 03:17:44;;;;;;;1.38;1.10;;;8.10;75.90;;;;;;5054042;28;20025;-80
2021/11/22 03:20:12;;;;;;;1.50;1.40;;;8.10;75.80;;;;;;5038328;28;20099;-81
2021/11/22 03:22:38;;;;;;;1.10;1.00;;;8.10;75.90;;;;;;5054020;28;20128;-81
2021/11/22 03:25:07;;;;;;;1.20;1.00;;;8.10;75.80;;;;;;5054208;28;20032;-80
2021/11/22 03:27:35;;;;;;;1.33;1.00;;;8.10;75.90;;;;;;5070397;28;20020;-80
2021/11/22 03:30:02;;;;;;;1.10;1.00;;;8.10;75.90;;;;;;5070491;28;20029;-79
2021/11/22 03:32:28;;;;;;;1.20;1.10;;;8.00;75.80;;;;;;5054142;28;20032;-79
2021/11/22 03:34:55;;;;;;;0.95;0.95;;;8.10;75.90;;;;;;5053883;28;20053;-81
2021/11/22 03:37:21;;;;;;;1.13;1.02;;;8.00;75.80;;;;;;5054406;28;20465;-80
2021/11/22 03:39:50;;;;;;;1.52;1.08;;;8.00;75.80;;;;;;5053499;28;20445;-80
2021/11/22 03:42:17;;;;;;;1.25;1.15;;;8.00;75.80;;;;;;5053700;28;20068;-80
2021/11/22 03:44:44;;;;;;;1.52;1.25;;;8.00;75.80;;;;;;5053721;28;20115;-80
2021/11/22 03:47:11;;;;;;;1.25;1.20;;;8.00;75.80;;;;;;5055090;28;20086;-80
2021/11/22 03:49:37;;;;;;;2.08;1.10;;;8.00;75.80;;;;;;5053719;28;20067;-81
2021/11/22 03:52:03;;;;;;;1.05;1.00;;;8.00;75.80;;;;;;5053412;28;20037;-80
2021/11/22 03:54:29;;;;;;;1.05;1.00;;;8.00;75.80;;;;;;5053359;28;20111;-81
2021/11/22 03:56:55;;;;;;;1.08;1.00;;;8.00;75.80;;;;;;5053018;28;20021;-80
2021/11/22 03:59:21;;;;;;;1.60;1.08;;;8.00;75.80;;;;;;5054169;28;20061;-81
2021/11/22 04:01:47;;;;;;;0.90;0.90;;;8.00;75.80;;;;;;5054060;28;20029;-80
2021/11/22 04:04:13;;;;;;;1.25;1.05;;;8.00;75.90;;;;;;5053267;28;20069;-80
2021/11/22 04:06:39;;;;;;;1.08;1.08;;;8.00;75.80;;;;;;5053260;28;20432;-80
2021/11/22 04:09:05;;;;;;;2.03;1.33;;;8.00;75.80;;;;;;5069833;28;20536;-78
2021/11/22 04:11:33;;;;;;;1.20;1.10;;;8.00;75.80;;;;;;5070104;28;20025;-80
2021/11/22 04:13:59;;;;;;;1.20;1.10;;;8.00;75.90;;;;;;5052841;28;20033;-80
2021/11/22 04:16:25;;;;;;;0.93;0.93;;;8.00;75.90;;;;;;5055097;28;20351;-80
2021/11/22 04:18:51;;;;;;;1.27;1.17;;;7.90;75.80;;;;;;5053061;28;20037;-79
2021/11/22 04:21:20;;;;;;;1.10;1.10;;;7.90;75.80;;;;;;5053042;28;20025;-80
2021/11/22 04:23:47;;;;;;;1.10;1.00;;;8.00;75.90;;;;;;5052702;28;20032;-80
2021/11/22 04:26:12;;;;;;;1.38;1.27;;;7.90;75.80;;;;;;5053221;28;20025;-80
2021/11/22 04:28:39;;;;;;;1.50;1.40;;;7.90;75.80;;;;;;5054326;28;20028;-80
2021/11/22 04:31:06;;;;;;;1.35;1.10;;;7.90;75.80;;;;;;5053548;28;20052;-80
2021/11/22 04:33:32;;;;;;;1.20;1.10;;;7.90;75.80;;;;;;5053538;28;20430;-80
2021/11/22 04:35:58;;;;;;;1.80;1.00;;;7.90;75.80;;;;;;5054056;28;20044;-80
2021/11/22 04:38:24;;;;;;;1.23;1.13;;;7.90;75.80;;;;;;5036772;28;20032;-79
2021/11/22 04:40:49;;;;;;;1.10;1.10;;;7.90;75.80;;;;;;5052827;28;20039;-80
2021/11/22 04:43:15;;;;;;;1.23;1.20;;;7.90;75.80;;;;;;5053989;28;20032;-80
2021/11/22 04:45:41;;;;;;;1.10;1.10;;;7.90;75.80;;;;;;5052909;28;20041;-81
2021/11/22 04:48:07;;;;;;;1.08;1.05;;;7.90;75.80;;;;;;5052958;28;20041;-80
2021/11/22 04:50:35;;;;;;;1.63;1.00;;;7.80;75.80;;;;;;5035842;28;20470;-80
2021/11/22 04:53:04;;;;;;;1.20;1.10;;;7.80;75.80;;;;;;5052595;28;20032;-80
2021/11/22 04:55:30;;;;;;;1.52;1.10;;;7.80;75.80;;;;;;5053619;28;20482;-80
2021/11/22 04:57:57;;;;;;;1.00;1.00;;;7.80;75.80;;;;;;5053569;28;20501;-79
2021/11/22 05:00:24;;;;;;;1.20;1.10;;;7.80;75.80;;;;;;5053939;28;20033;-80
2021/11/22 05:02:50;;;;;;;1.13;1.02;;;7.80;75.80;;;;;;5068991;28;20100;-80
2021/11/22 05:05:17;;;;;;;0.90;0.90;;;7.80;75.80;;;;;;5052344;28;20052;-80
2021/11/22 05:07:44;;;;;;;1.20;1.10;;;7.80;75.80;;;;;;5069210;28;20029;-80
2021/11/22 05:10:10;;;;;;;1.38;1.25;;;7.80;75.80;;;;;;5052508;28;20036;-81
2021/11/22 05:12:37;;;;;;;1.15;1.05;;;7.80;75.80;;;;;;5053361;28;20517;-80
2021/11/22 05:15:04;;;;;;;1.48;1.38;;;7.80;75.70;;;;;;5052504;28;20117;-81
2021/11/22 05:17:30;;;;;;;0.95;0.95;;;7.80;75.80;;;;;;5052660;28;20025;-79
2021/11/22 05:19:56;;;;;;;1.88;1.20;;;7.80;75.80;;;;;;5052356;28;20021;-80
2021/11/22 05:22:24;;;;;;;1.05;1.02;;;7.70;75.70;;;;;;5052436;28;20133;-80
2021/11/22 05:24:50;;;;;;;1.25;1.15;;;7.80;75.80;;;;;;5054156;28;20531;-80
2021/11/22 05:27:22;;;;;;;1.00;1.00;;;7.70;75.70;;;;;;5051913;28;20060;-81
2021/11/22 05:29:49;;;;;;;1.20;1.08;;;7.70;75.80;;;;;;5052537;28;20032;-80
2021/11/22 05:32:16;;;;;;;1.02;1.00;;;7.70;75.70;;;;;;5053513;28;20025;-80
2021/11/22 05:34:48;;;;;;;1.25;1.15;;;7.70;75.70;;;;;;5052599;28;20053;-81
2021/11/22 05:37:15;;;;;;;0.90;0.90;;;7.70;75.80;;;;;;5053056;28;20039;-80
2021/11/22 05:39:41;;;;;;;1.15;0.90;;;7.70;75.70;;;;;;5053098;28;20049;-80
2021/11/22 05:42:07;;;;;;;1.10;1.00;;;7.70;75.80;;;;;;5056099;28;20091;-80
2021/11/22 05:44:35;;;;;;;1.55;1.13;;;7.70;75.80;;;;;;5055750;28;20029;-79
2021/11/22 05:47:03;;;;;;;1.23;1.13;;;7.70;75.80;;;;;;5055802;28;20033;-79
2021/11/22 05:49:32;;;;;;;1.67;1.08;;;7.60;75.70;;;;;;5056532;28;20088;-77
2021/11/22 05:51:58;;;;;;;1.00;1.00;;;7.60;75.70;;;;;;5056431;28;20491;-79
2021/11/22 05:54:25;;;;;;;1.05;1.00;;;7.60;75.70;;;;;;5072429;28;20029;-80
2021/11/22 05:56:52;;;;;;;1.20;1.10;;;7.60;75.70;;;;;;5055023;28;20358;-79
2021/11/22 05:59:19;;;;;;;1.20;1.10;;;7.60;75.70;;;;;;5056402;28;20104;-79
2021/11/22 06:01:45;;;;;;;1.30;1.20;;;7.60;75.70;;;;;;5055513;28;20033;-79
2021/11/22 06:04:11;;;;;;;2.00;1.10;;;7.60;75.70;;;;;;5055122;28;20099;-79
2021/11/22 06:06:36;;;;;;;1.58;1.33;;;7.60;75.70;;;;;;5055895;28;20036;-79
2021/11/22 06:09:02;;;;;;;1.42;0.90;;;7.60;75.70;;;;;;5055560;28;20446;-79
2021/11/22 06:11:28;;;;;;;1.27;1.10;;;7.60;75.70;;;;;;5055231;28;20029;-80
2021/11/22 06:13:54;;;;;;;1.30;1.20;;;7.60;75.70;;;;;;5055408;28;20124;-78
2021/11/22 06:16:20;;;;;;;1.10;1.00;;;7.60;75.70;;;;;;5055688;28;20029;-78
2021/11/22 06:18:45;;;;;;;1.10;1.10;;;7.60;75.70;;;;;;5054992;28;20455;-77
2021/11/22 06:21:11;;;;;;;1.10;1.00;;;7.60;75.70;;;;;;5055948;28;20064;-78
2021/11/22 06:23:37;;;;;;;1.00;1.00;;;7.50;75.70;;;;;;5055734;28;20131;-78
2021/11/22 06:26:03;;;;;;;1.27;1.10;;;7.50;75.70;;;;;;5054708;28;20029;-77
2021/11/22 06:28:28;;;;;;;1.27;1.20;;;7.50;75.70;;;;;;5054609;28;20046;-79
2021/11/22 06:30:54;;;;;;;1.85;1.00;;;7.50;75.70;;;;;;5055022;28;20065;-79
2021/11/22 06:33:20;;;;;;;1.05;1.05;;;7.50;75.70;;;;;;5055354;28;20063;-81
2021/11/22 06:35:46;;;;;;;1.73;1.15;;;7.50;75.70;;;;;;5037864;28;20075;-77
2021/11/22 06:38:12;;;;;;;1.27;1.05;;;7.50;75.70;;;;;;5071130;28;20471;-78
2021/11/22 06:40:39;;;;;;;1.25;1.15;;;7.50;75.70;;;;;;5038059;28;20040;-77
2021/11/22 06:43:05;;;;;;;1.15;1.00;;;7.50;75.70;;;;;;5056255;28;20029;-77
2021/11/22 06:45:31;;;;;;;1.30;1.20;;;7.50;75.70;;;;;;5054549;28;20029;-78
2021/11/22 06:47:57;;;;;;;1.83;1.23;;;7.50;75.80;;;;;;5054515;28;20373;-77
2021/11/22 06:50:24;;;;;;;1.17;1.08;;;7.50;75.80;;;;;;5054676;28;20036;-78
2021/11/22 06:52:50;;;;;;;1.30;1.02;;;7.40;75.70;;;;;;5053388;28;20036;-78
2021/11/22 06:55:16;;;;;;;1.42;1.20;;;7.40;75.70;;;;;;5054367;28;20040;-78
2021/11/22 06:57:42;;;;;;;1.30;1.10;;;7.40;75.70;;;;;;5054892;28;20035;-77
2021/11/22 07:00:11;;;;;;;1.42;1.33;;;7.40;75.70;;;;;;5054245;28;20035;-77
2021/11/22 07:02:38;;;;;;;1.30;1.10;;;7.40;75.70;;;;;;5055623;28;20036;-79
2021/11/22 07:05:05;;;;;;;1.35;1.25;;;7.40;75.70;;;;;;5054899;28;20082;-77
2021/11/22 07:07:31;;;;;;;2.10;1.23;;;7.40;75.70;;;;;;5054701;28;20033;-78
2021/11/22 07:09:57;;;;;;;1.27;1.10;;;7.40;75.70;;;;;;5054264;28;20478;-77
2021/11/22 07:12:22;;;;;;;1.40;1.20;;;7.40;75.70;;;;;;5053954;28;20129;-78
2021/11/22 07:14:48;;;;;;;1.20;1.10;;;7.40;75.70;;;;;;5054404;28;20029;-79
2021/11/22 07:17:15;;;;;;;2.13;1.08;;;7.30;75.70;;;;;;5070546;28;20029;-79
2021/11/22 07:19:42;;;;;;;1.63;1.20;;;7.40;75.80;;;;;;5070519;28;20029;-77
2021/11/22 07:22:09;;;;;;;1.10;1.02;;;7.30;75.70;;;;;;5054512;28;20068;-79
2021/11/22 07:24:38;;;;;;;1.70;1.30;;;7.30;75.70;;;;;;5054987;28;20029;-80
2021/11/22 07:27:04;;;;;;;1.65;1.38;;;7.30;75.70;;;;;;5055170;28;20029;-78
2021/11/22 07:29:30;;;;;;;1.33;1.15;;;7.30;75.70;;;;;;5037928;28;20082;-77
2021/11/22 07:31:56;;;;;;;2.72;1.38;;;7.30;75.80;;;;;;5053499;28;20124;-78
2021/11/22 07:34:22;;;;;;;1.25;1.10;;;7.30;75.70;;;;;;5054651;28;20045;-79
2021/11/22 07:36:48;;;;;;;1.30;1.20;;;7.30;75.70;;;;;;5054259;28;20043;-81
2021/11/22 07:39:14;;;;;;;1.67;1.13;;;7.30;75.80;;;;;;5054350;28;20032;-79
2021/11/22 07:41:40;;;;;;;1.30;1.20;;;7.30;75.80;;;;;;5053524;28;20359;-79
2021/11/22 07:44:06;;;;;;;1.88;1.20;;;7.30;75.80;;;;;;5054426;28;20052;-81
2021/11/22 07:46:33;;;;;;;1.15;1.13;;;7.30;75.80;;;;;;5053864;28;20027;-80
2021/11/22 07:48:58;;;;;;;1.58;1.40;;;7.30;75.80;;;;;;5053771;28;20079;-80
2021/11/22 07:51:25;;;;;;;1.45;1.23;;;7.30;75.80;;;;;;5053521;28;20025;-79
2021/11/22 07:53:50;;;;;;;1.17;1.08;;;7.30;75.80;;;;;;5054717;28;20068;-78
2021/11/22 07:56:16;;;;;;;1.92;1.25;;;7.30;75.80;;;;;;5070860;28;20057;-79
2021/11/22 07:58:42;;;;;;;1.48;1.30;;;7.30;75.80;;;;;;5054497;28;20033;-79
2021/11/22 08:01:08;;;;;;;1.35;1.25;;;7.30;75.80;;;;;;5053183;28;20066;-79
2021/11/22 08:03:34;;;;;;;2.40;1.30;;;7.20;75.70;;;;;;5052789;28;20481;-80
2021/11/22 08:06:00;;;;;;;1.00;1.00;;;7.20;75.70;;;;;;5052922;28;20056;-80
2021/11/22 08:08:29;;;;;;;1.10;1.10;;;7.20;75.70;;;;;;5053303;28;20080;-79
2021/11/22 08:11:17;;;;;;;1.30;1.20;;;7.20;75.70;;;;;;5053607;28;20032;-79
2021/11/22 08:13:42;;;;;;;1.20;1.13;;;7.20;75.70;;;;;;5053134;28;20047;-78
2021/11/22 08:16:08;;;;;;;1.30;1.20;;;7.20;75.70;;;;;;5053809;28;20041;-80
2021/11/22 08:18:36;;;;;;;1.15;1.10;;;7.20;75.70;;;;;;5053411;28;20044;-81
2021/11/22 08:21:04;;;;;;;2.75;1.30;;;7.20;75.80;;;;;;5053274;28;20025;-80
2021/11/22 08:23:30;;;;;;;1.42;1.10;;;7.20;75.80;;;;;;5069739;28;20033;-80
2021/11/22 08:25:56;;;;;;;1.27;1.20;;;7.20;75.80;;;;;;5053999;28;20017;-80
2021/11/22 08:28:23;;;;;;;1.30;1.20;;;7.20;75.80;;;;;;5054724;28;20436;-80
2021/11/22 08:30:48;;;;;;;1.73;1.23;;;7.20;75.80;;;;;;5053775;28;20522;-82
2021/11/22 08:33:17;;;;;;;1.30;1.20;;;7.20;76.50;;;;;;5052842;28;20033;-81
2021/11/22 08:35:44;;;;;;;1.10;1.10;;;7.20;75.80;;;;;;5054550;28;20048;-81
2021/11/22 08:38:10;;;;;;;1.42;1.20;;;7.20;75.80;;;;;;5069432;28;20045;-81
2021/11/22 08:40:40;;;;;;;1.60;1.20;;;7.20;75.80;;;;;;5052951;28;20531;-84
2021/11/22 08:43:08;;;;;;;1.73;1.40;;;7.20;75.80;;;;;;5053839;28;20496;-81
2021/11/22 08:45:34;;;;;;;1.20;1.10;;;7.10;75.80;;;;;;5053832;28;20120;-81
2021/11/22 08:48:01;;;;;;;1.20;1.20;;;7.10;75.80;;;;;;5053887;28;20496;-81
2021/11/22 08:50:27;;;;;;;1.27;1.17;;;7.10;75.80;;;;;;5069800;28;20486;-80
2021/11/22 08:52:53;;;;;;;1.55;1.45;;;7.10;75.80;;;;;;5052969;28;20488;-81
2021/11/22 08:55:19;;;;;;;1.48;1.20;;;7.20;75.90;;;;;;5053681;28;20029;-81
2021/11/22 08:57:47;;;;;;;1.45;1.33;;;7.10;75.80;;;;;;5036220;28;20037;-81
2021/11/22 09:00:17;;;;;;;2.28;1.23;;;7.10;75.80;;;;;;5053144;28;20468;-81
2021/11/22 09:02:43;;;;;;;1.23;1.13;;;7.10;75.90;;;;;;5069701;28;20068;-81
2021/11/22 09:05:08;;;;;;;1.45;1.20;;;7.10;75.80;;;;;;5053713;28;20029;-80
2021/11/22 09:07:34;;;;;;;1.30;1.20;;;7.10;75.90;;;;;;5036246;28;20060;-81
2021/11/22 09:10:00;;;;;;;1.23;1.13;;;7.20;75.90;;;;;;5052578;28;20021;-80
2021/11/22 09:12:26;;;;;;;1.20;1.10;;;7.20;75.90;;;;;;5053566;28;20098;-80
2021/11/22 09:14:52;;;;;;;1.30;1.20;;;7.20;76.00;;;;;;5052778;28;20064;-81
2021/11/22 09:17:18;;;;;;;1.38;1.27;;;7.20;76.00;;;;;;5057313;28;20025;-80
2021/11/22 09:19:44;;;;;;;1.33;1.23;;;7.20;76.00;;;;;;5056680;28;20089;-81
2021/11/22 09:22:11;;;;;;;1.30;1.20;;;7.20;76.00;;;;;;5073703;28;20037;-80
2021/11/22 09:24:39;;;;;;;1.38;1.23;;;7.30;76.10;;;;;;5056632;28;20544;-83
2021/11/22 09:27:06;;;;;;;1.20;1.10;;;7.20;76.00;;;;;;5057272;28;20021;-80
2021/11/22 09:29:32;;;;;;;1.58;1.10;;;7.30;76.10;;;;;;5057019;28;20082;-81
2021/11/22 09:31:58;;;;;;;1.48;1.23;;;7.30;76.10;;;;;;5056075;28;20032;-77
2021/11/22 09:34:24;;;;;;;1.17;1.10;;;7.30;76.10;;;;;;5056067;28;20053;-81
2021/11/22 09:36:50;;;;;;;1.20;1.10;;;7.30;76.20;;;;;;5056655;28;20151;-81
2021/11/22 09:39:18;;;;;;;1.13;1.02;;;7.30;76.10;;;;;;5056134;28;20038;-81
2021/11/22 09:41:47;;;;;;;1.25;1.05;;;7.30;76.20;;;;;;5056087;28;20350;-80
2021/11/22 09:44:14;;;;;;;1.27;1.17;;;7.40;76.20;;;;;;5056245;28;20041;-81
2021/11/22 09:46:40;;;;;;;2.30;1.25;;;7.40;76.20;;;;;;5072710;28;20017;-81
2021/11/22 09:49:06;;;;;;;2.92;1.38;;;7.40;76.20;;;;;;5055998;28;20082;-81
2021/11/22 09:51:32;;;;;;;1.67;1.08;;;7.40;76.30;;;;;;5055977;28;20090;-81
2021/11/22 09:53:58;;;;;;;1.20;1.10;;;7.40;76.30;;;;;;5057125;28;20480;-81
2021/11/22 09:56:25;;;;;;;1.33;1.23;;;7.40;76.30;;;;;;5055986;28;20029;-80
2021/11/22 09:58:52;;;;;;;1.27;1.10;;;7.40;76.30;;;;;;5056777;28;20021;-81
2021/11/22 10:01:18;;;;;;;1.95;1.10;;;7.50;76.40;;;;;;5056014;28;20032;-81
2021/11/22 10:04:07;;;;;;;1.25;1.15;;;7.50;76.40;;;;;;5055987;28;20029;-80
2021/11/22 10:07:10;;;;;;;1.77;1.10;;;7.50;76.50;;;;;;5055590;28;20090;-81
2021/11/22 10:09:43;;;;;;;1.98;1.35;;;7.50;76.50;;;;;;5057453;28;20171;-81
2021/11/22 10:12:09;;;;;;;1.30;1.20;;;7.60;76.40;;;;;;5056903;28;20033;-81
2021/11/22 10:14:40;;;;;;;1.10;1.10;;;7.60;76.40;;;;;;5055945;28;20028;-81
2021/11/22 10:17:27;;;;;;;1.95;1.52;;;7.60;76.50;;;;;;5055534;28;20056;-81
2021/11/22 10:20:11;;;;;;;1.30;1.20;;;7.60;76.60;;;;;;5055579;28;20056;-81
2021/11/22 10:22:54;;;;;;;1.65;1.33;;;7.60;76.70;;;;;;5056187;28;20488;-81
2021/11/22 10:25:36;;;;;;;1.00;1.00;;;7.60;76.60;;;;;;5055946;28;20481;-81
2021/11/22 10:28:04;;;;;;;1.40;1.10;;;7.60;76.60;;;;;;5055328;28;20028;-80
2021/11/22 10:30:32;;;;;;;1.40;1.20;;;7.60;76.60;;;;;;5055501;28;20027;-81
2021/11/22 10:33:02;;;;;;;1.30;1.20;;;7.60;77.30;;;;;;5071639;28;20040;-80
2021/11/22 10:35:31;;;;;;;0.95;0.95;;;7.70;76.70;;;;;;5054954;28;20073;-80
2021/11/22 10:37:59;;;;;;;1.17;1.05;;;7.70;76.70;;;;;;5055665;28;20124;-81
2021/11/22 10:40:27;;;;;;;1.77;1.27;;;7.70;76.60;;;;;;5056406;28;20040;-81
2021/11/22 10:42:53;;;;;;;2.40;1.65;;;7.70;76.70;;;;;;5055996;28;20509;-80
2021/11/22 10:45:27;;;;;;;1.35;1.25;;;7.80;76.70;;;;;;5055262;28;20437;-80
2021/11/22 10:48:08;;;;;;;1.63;1.40;;;7.80;76.80;;;;;;5055118;28;20123;-81
2021/11/22 10:50:36;;;;;;;1.30;1.20;;;7.80;76.80;;;;;;5056018;28;20107;-81
2021/11/22 10:53:05;;;;;;;1.13;1.10;;;7.80;76.70;;;;;;5055867;28;20016;-80
2021/11/22 10:55:51;;;;;;;1.30;1.20;;;7.80;76.70;;;;;;5071376;28;20079;-81
2021/11/22 10:58:38;;;;;;;0.98;0.98;;;7.80;76.80;;;;;;5071311;28;20463;-82
2021/11/22 11:01:19;;;;;;;1.50;1.20;;;7.80;76.80;;;;;;5055718;28;20035;-80
2021/11/22 11:04:05;;;;;;;1.30;1.20;;;7.80;76.70;;;;;;5071461;28;20040;-81
2021/11/22 11:07:15;;;;;;;1.30;1.20;;;7.90;76.90;;;;;;5054577;28;20021;-82
2021/11/22 11:09:52;;;;;;;1.00;1.00;;;7.90;76.80;;;;;;5041339;28;20087;-80
2021/11/22 11:12:24;;;;;;;0.98;0.95;;;7.90;76.80;;;;;;5055810;28;20465;-80
2021/11/22 11:14:53;;;;;;;1.10;1.00;;;7.90;76.80;;;;;;5054587;28;20063;-79
2021/11/22 11:17:30;;;;;;;1.67;1.00;;;7.90;76.80;;;;;;5054523;28;20017;-80
2021/11/22 11:19:58;;;;;;;1.40;1.20;;;8.00;76.80;;;;;;5055169;28;20025;-81
2021/11/22 11:22:26;;;;;;;1.10;1.00;;;8.00;76.80;;;;;;5070581;28;20469;-80
2021/11/22 11:24:52;;;;;;;1.20;1.10;;;8.00;76.80;;;;;;5055174;28;20472;-79
2021/11/22 11:27:18;;;;;;;1.20;1.10;;;8.00;76.70;;;;;;5054038;28;20032;-80
2021/11/22 11:29:45;;;;;;;1.00;1.00;;;8.00;76.70;;;;;;5054287;28;20033;-82
2021/11/22 11:32:11;;;;;;;1.80;1.15;;;8.00;76.70;;;;;;5053844;28;20111;-80
2021/11/22 11:34:43;;;;;;;1.98;1.20;;;8.10;76.70;;;;;;5054617;28;20049;-80
2021/11/22 11:37:30;;;;;;;2.28;0.95;;;8.10;77.40;;;;;;5054735;28;20033;-81
2021/11/22 11:40:24;;;;;;;1.00;1.00;;;8.10;76.70;;;;;;5055486;28;20075;-83
2021/11/22 11:43:08;;;;;;;1.00;1.00;;;8.10;76.70;;;;;;5054429;28;20037;-80
2021/11/22 11:45:45;;;;;;;1.20;1.10;;;8.10;76.70;;;;;;5053544;28;20043;-79
2021/11/22 11:48:15;;;;;;;1.10;1.10;;;8.20;76.80;;;;;;5054520;28;20048;-80
2021/11/22 11:50:44;;;;;;;1.20;1.00;;;8.10;76.60;;;;;;5053703;28;20480;-80
2021/11/22 11:53:13;;;;;;;1.23;1.13;;;8.10;76.70;;;;;;5054965;28;20103;-81
2021/11/22 11:55:39;;;;;;;0.95;0.93;;;8.20;76.70;;;;;;5053138;28;20040;-80
2021/11/22 11:58:27;;;;;;;0.95;0.95;;;8.20;76.70;;;;;;5053660;28;20090;-80
2021/11/22 12:01:06;;;;;;;1.00;1.00;;;8.20;76.80;;;;;;5054731;28;20028;-80
2021/11/22 12:04:04;;;;;;;1.17;1.00;;;8.20;76.70;;;;;;5053079;28;20197;-80
2021/11/22 12:06:49;;;;;;;1.00;1.00;;;8.30;77.40;;;;;;5048006;28;20037;-81
2021/11/22 12:09:33;;;;;;;1.45;1.35;;;8.30;76.70;;;;;;5053606;28;20120;-80
2021/11/22 12:12:08;;;;;;;0.80;0.80;;;8.30;76.70;;;;;;5053314;28;20367;-80
2021/11/22 12:14:49;;;;;;;;;;;8.30;76.70;;;;;;5054893;28;20027;-80
2021/11/22 12:17:40;;;;;;;0.93;0.90;;;8.40;76.60;;;;;;5054396;28;19955;-80
2021/11/22 12:20:24;;;;;;;1.13;1.00;;;8.30;76.60;;;;;;5070059;28;20033;-80
2021/11/22 12:22:53;;;;;;;1.83;1.00;;;8.40;76.60;;;;;;5053714;28;20044;-81
2021/11/22 12:25:42;;;;;;;0.93;0.90;;;8.40;76.60;;;;;;5052753;28;20420;-79
2021/11/22 12:28:26;;;;;;;1.02;1.02;;;8.50;76.80;;;;;;5053886;28;20029;-82
2021/11/22 12:30:55;;;;;;;0.98;0.90;;;8.50;76.70;;;;;;5053769;28;20123;-82
2021/11/22 12:33:21;;;;;;;1.13;1.02;;;8.50;76.60;;;;;;5053057;28;20108;-83
2021/11/22 12:36:00;;;;;;;1.00;1.00;;;8.50;76.60;;;;;;5053480;28;20117;-81
2021/11/22 12:38:33;;;;;;;1.10;1.00;;;8.50;76.60;;;;;;5053179;28;20025;-80
2021/11/22 12:41:03;;;;;;;1.35;1.10;;;8.60;76.60;;;;;;5052774;28;20020;-81
2021/11/22 12:43:38;;;;;;;1.10;1.00;;;8.60;76.50;;;;;;5070098;28;20041;-79
2021/11/22 12:46:05;;;;;;;1.17;1.08;;;8.60;76.50;;;;;;5052635;28;20108;-82
2021/11/22 12:48:33;;;;;;;1.10;1.00;;;8.70;76.50;;;;;;5052675;28;20029;-80
2021/11/22 12:51:05;;;;;;;1.17;1.00;;;8.70;76.40;;;;;;5057128;28;20029;-79
2021/11/22 12:53:32;;;;;;;1.00;1.00;;;8.80;76.40;;;;;;5059759;28;20063;-80
2021/11/22 12:55:58;;;;;;;1.42;1.08;;;8.80;76.20;;;;;;5076125;28;20025;-77
2021/11/22 12:58:25;;;;;;;1.00;1.00;;;8.90;76.20;;;;;;5059231;28;20029;-79
2021/11/22 13:00:54;;;;;;;1.08;1.00;;;8.90;76.10;;;;;;5058677;28;20032;-77
2021/11/22 13:03:22;;;;;;;1.00;1.00;;;9.00;76.10;;;;;;5059192;28;20033;-78
2021/11/22 13:06:01;;;;;;;1.10;1.10;;;9.00;76.00;;;;;;5059995;28;20025;-78